Seo Young — D7LH — position and weather

sailwx.info

Track history (hours):
 
Tides and Currents Weather Stations Pressure Air Temp Water Temp Dewpoint Dewpoint Depression Visibility Wind Speed Wind Dir Waves Ship Positions

Seo Young

Last reported at 2016-Jun-11 17:33 UTC. Time now 2016-Jun-30 01:29 UTC.
Position N 01°53' E 102°25'.
Warning: this ship's position is 18 days out of date.

Length 121 m; draft 8.7 m.

Type: Tanker. MMSI: 440036000.

Date/timePositionNaut miles runAvg speedWind from/ knotsBaromVisibWave heightAir tempDewpointWater temp
2016-Jun-11 17:33N 01°53' E 102°25'1212.0
2016-Jun-11 16:33N 01°48' E 102°36'1212.0
2016-Jun-11 15:32N 01°43' E 102°47'69 4.5
2016-Jun-11 00:10N 01°11' E 103°48'610.2
2016-Jun-10 23:33N 01°13' E 103°54'1111.1
2016-Jun-10 22:32N 01°16' E 104°05'  
2016-Jun-05 12:30N 22°37' E 119°53'53210.2
2016-Jun-03 08:31N 31°20' E 121°41'1111.2
2016-Jun-03 07:33N 31°25' E 121°30'6 6.5
2016-Jun-03 06:33N 31°30' E 121°25'1212.3
2016-Jun-03 05:33N 31°38' E 121°14'1211.6
2016-Jun-03 04:32N 31°46' E 121°03'11 9.6
2016-Jun-03 03:23N 31°53' E 120°53'1110.8
2016-Jun-03 02:22N 32°00' E 120°44'1112.3
2016-Jun-03 01:30N 32°01' E 120°32'1513.4
2016-Jun-03 00:22N 31°56' E 120°15'1012.4
2016-Jun-02 23:33N 31°57' E 120°03'1 0.0
2016-Jun-02 06:28N 31°57' E 120°02'5 5.4
2016-Jun-02 05:29N 31°56' E 120°09'9 9.3
2016-Jun-02 04:29N 31°58' E 120°19'1110.8
2016-Jun-02 03:30N 32°02' E 120°31'1010.5
2016-Jun-02 02:32N 32°00' E 120°43'8 8.1
2016-Jun-02 01:32N 31°57' E 120°52'13 8.8
2016-Jun-02 00:06N 31°47' E 120°60'3 5.5
2016-Jun-01 23:33N 31°47' E 121°03'0 0.0
2016-Jun-01 18:23N 31°47' E 121°04'  
Track history (hours):
 
Tides and Currents Weather Stations Pressure Air Temp Water Temp Dewpoint Dewpoint Depression Visibility Wind Speed Wind Dir Waves Ship Positions

Seo Young

Last reported at 2016-Jun-11 17:33 UTC. Time now 2016-Jun-30 01:29 UTC.
Position N 01°53' E 102°25'.
Warning: this ship's position is 18 days out of date.

Length 121 m; draft 8.7 m.

Type: Tanker. MMSI: 440036000.

Date/timePositionNaut miles runAvg speedWind from/ knotsBaromVisibWave heightAir tempDewpointWater temp
2016-Jun-11 17:33N 01°53' E 102°25'1212.0
2016-Jun-11 16:33N 01°48' E 102°36'1212.0
2016-Jun-11 15:32N 01°43' E 102°47'69 4.5
2016-Jun-11 00:10N 01°11' E 103°48'610.2
2016-Jun-10 23:33N 01°13' E 103°54'1111.1
2016-Jun-10 22:32N 01°16' E 104°05'  
2016-Jun-05 12:30N 22°37' E 119°53'53210.2
2016-Jun-03 08:31N 31°20' E 121°41'1111.2
2016-Jun-03 07:33N 31°25' E 121°30'6 6.5
2016-Jun-03 06:33N 31°30' E 121°25'1212.3
2016-Jun-03 05:33N 31°38' E 121°14'1211.6
2016-Jun-03 04:32N 31°46' E 121°03'11 9.6
2016-Jun-03 03:23N 31°53' E 120°53'1110.8
2016-Jun-03 02:22N 32°00' E 120°44'1112.3
2016-Jun-03 01:30N 32°01' E 120°32'1513.4
2016-Jun-03 00:22N 31°56' E 120°15'1012.4
2016-Jun-02 23:33N 31°57' E 120°03'1 0.0
2016-Jun-02 06:28N 31°57' E 120°02'5 5.4
2016-Jun-02 05:29N 31°56' E 120°09'9 9.3
2016-Jun-02 04:29N 31°58' E 120°19'1110.8
2016-Jun-02 03:30N 32°02' E 120°31'1010.5
2016-Jun-02 02:32N 32°00' E 120°43'8 8.1
2016-Jun-02 01:32N 31°57' E 120°52'13 8.8
2016-Jun-02 00:06N 31°47' E 120°60'3 5.5
2016-Jun-01 23:33N 31°47' E 121°03'0 0.0
2016-Jun-01 18:23N 31°47' E 121°04'  

Dump ship's entire track history